Stafford Township, New Jersey
Current Conditions -  °F | °C
As of 9:35 AM on Thursday 18 Dec 2014 (Local Time) from KMJX Reporting Station
Broken Clouds Broken Clouds  
Wind Chill: 30°   Ceiling: 3900
Heat Index: 37°   Visibility: 10mi
Dew Point: 21°   Wind: 12mph
Humidity: 52%   Direction: 270°W
Pressure: 30.05"   Gusts: 24mph
Location:  39.7102°N, 74.2577°W
Report Text: KMJX 181435Z AUTO 27010G21KT 10SM BKN039 03/M06 A3005 RMK AO1
Loading
Personal Weather Stations






























Interactive Weather Map New forecast layout! Learn more

10-Day Weather Forecast

Advertisements
Track Severe Weather on mobile